sensor_id;sensor_type;location;lat;lon;timestamp;temperature;humidity
10873;DHT22;34586;53.616;10.032;2023-02-23T00:01:56;7.90;99.90
10873;DHT22;34586;53.616;10.032;2023-02-23T00:04:23;7.90;99.90
10873;DHT22;34586;53.616;10.032;2023-02-23T00:06:50;7.90;99.90
10873;DHT22;34586;53.616;10.032;2023-02-23T00:09:19;7.90;99.90
10873;DHT22;34586;53.616;10.032;2023-02-23T00:11:55;7.90;99.90
10873;DHT22;34586;53.616;10.032;2023-02-23T00:14:25;8.00;99.90
10873;DHT22;34586;53.616;10.032;2023-02-23T00:16:56;7.90;99.90
10873;DHT22;34586;53.616;10.032;2023-02-23T00:19:21;7.80;99.90
10873;DHT22;34586;53.616;10.032;2023-02-23T00:21:49;7.80;99.90
10873;DHT22;34586;53.616;10.032;2023-02-23T00:24:16;7.70;99.90
10873;DHT22;34586;53.616;10.032;2023-02-23T00:26:45;7.70;99.90
10873;DHT22;34586;53.616;10.032;2023-02-23T00:29:16;7.70;99.90
10873;DHT22;34586;53.616;10.032;2023-02-23T00:31:43;7.70;99.90
10873;DHT22;34586;53.616;10.032;2023-02-23T00:34:11;7.80;99.90
10873;DHT22;34586;53.616;10.032;2023-02-23T00:36:37;7.60;99.90
10873;DHT22;34586;53.616;10.032;2023-02-23T00:39:09;7.70;99.90
10873;DHT22;34586;53.616;10.032;2023-02-23T00:41:50;7.60;99.90
10873;DHT22;34586;53.616;10.032;2023-02-23T00:44:23;7.60;99.90
10873;DHT22;34586;53.616;10.032;2023-02-23T00:46:50;7.60;99.90
10873;DHT22;34586;53.616;10.032;2023-02-23T00:49:16;7.50;99.90
10873;DHT22;34586;53.616;10.032;2023-02-23T00:51:42;7.50;99.90
10873;DHT22;34586;53.616;10.032;2023-02-23T00:54:11;7.50;99.90
10873;DHT22;34586;53.616;10.032;2023-02-23T00:56:37;7.50;99.90
10873;DHT22;34586;53.616;10.032;2023-02-23T00:59:03;7.40;99.90
10873;DHT22;34586;53.616;10.032;2023-02-23T01:01:29;7.50;99.90
10873;DHT22;34586;53.616;10.032;2023-02-23T01:03:55;7.50;99.90
10873;DHT22;34586;53.616;10.032;2023-02-23T01:06:21;7.50;99.90
10873;DHT22;34586;53.616;10.032;2023-02-23T01:08:49;7.50;99.90
10873;DHT22;34586;53.616;10.032;2023-02-23T01:11:17;7.50;99.90
10873;DHT22;34586;53.616;10.032;2023-02-23T01:13:46;7.50;99.90
10873;DHT22;34586;53.616;10.032;2023-02-23T01:16:15;7.50;99.90
10873;DHT22;34586;53.616;10.032;2023-02-23T01:18:43;7.50;99.90
10873;DHT22;34586;53.616;10.032;2023-02-23T01:21:23;7.60;99.90
10873;DHT22;34586;53.616;10.032;2023-02-23T01:23:51;7.60;99.90
10873;DHT22;34586;53.616;10.032;2023-02-23T01:26:25;7.50;99.90
10873;DHT22;34586;53.616;10.032;2023-02-23T01:28:54;7.50;99.90
10873;DHT22;34586;53.616;10.032;2023-02-23T01:31:21;7.50;99.90
10873;DHT22;34586;53.616;10.032;2023-02-23T01:33:47;7.50;99.90
10873;DHT22;34586;53.616;10.032;2023-02-23T01:36:12;7.60;99.90
10873;DHT22;34586;53.616;10.032;2023-02-23T01:38:39;7.50;99.90
10873;DHT22;34586;53.616;10.032;2023-02-23T01:41:05;7.50;99.90
10873;DHT22;34586;53.616;10.032;2023-02-23T01:43:31;7.50;99.90
10873;DHT22;34586;53.616;10.032;2023-02-23T01:45:57;7.50;99.90
10873;DHT22;34586;53.616;10.032;2023-02-23T01:48:28;7.50;99.90
10873;DHT22;34586;53.616;10.032;2023-02-23T01:50:56;7.50;99.90
10873;DHT22;34586;53.616;10.032;2023-02-23T01:53:24;7.50;99.90
10873;DHT22;34586;53.616;10.032;2023-02-23T01:55:53;7.50;99.90
10873;DHT22;34586;53.616;10.032;2023-02-23T01:58:22;7.60;99.90
10873;DHT22;34586;53.616;10.032;2023-02-23T02:00:54;7.60;99.90
10873;DHT22;34586;53.616;10.032;2023-02-23T02:03:27;7.60;99.90
10873;DHT22;34586;53.616;10.032;2023-02-23T02:05:55;7.60;99.90
10873;DHT22;34586;53.616;10.032;2023-02-23T02:08:22;7.60;99.90
10873;DHT22;34586;53.616;10.032;2023-02-23T02:10:50;7.60;99.90
10873;DHT22;34586;53.616;10.032;2023-02-23T02:13:22;7.60;99.90
10873;DHT22;34586;53.616;10.032;2023-02-23T02:30:16;7.70;99.90
10873;DHT22;34586;53.616;10.032;2023-02-23T02:41:41;7.70;99.90
10873;DHT22;34586;53.616;10.032;2023-02-23T02:44:26;7.70;99.90
10873;DHT22;34586;53.616;10.032;2023-02-23T02:46:58;7.70;99.90
10873;DHT22;34586;53.616;10.032;2023-02-23T02:49:29;7.80;99.90
10873;DHT22;34586;53.616;10.032;2023-02-23T02:53:04;7.90;99.90
10873;DHT22;34586;53.616;10.032;2023-02-23T02:55:07;7.80;99.90
10873;DHT22;34586;53.616;10.032;2023-02-23T02:57:36;7.80;99.90
10873;DHT22;34586;53.616;10.032;2023-02-23T03:00:03;7.90;99.90
10873;DHT22;34586;53.616;10.032;2023-02-23T03:02:47;7.80;99.90
10873;DHT22;34586;53.616;10.032;2023-02-23T03:08:36;7.80;99.90
10873;DHT22;34586;53.616;10.032;2023-02-23T03:11:26;7.90;99.90
10873;DHT22;34586;53.616;10.032;2023-02-23T03:14:45;7.80;99.90
10873;DHT22;34586;53.616;10.032;2023-02-23T03:17:45;7.80;99.90
10873;DHT22;34586;53.616;10.032;2023-02-23T03:20:44;7.80;99.90
10873;DHT22;34586;53.616;10.032;2023-02-23T03:24:12;7.90;99.90
10873;DHT22;34586;53.616;10.032;2023-02-23T03:26:52;7.90;99.90
10873;DHT22;34586;53.616;10.032;2023-02-23T03:29:54;8.00;99.90
10873;DHT22;34586;53.616;10.032;2023-02-23T03:32:51;8.00;99.90
10873;DHT22;34586;53.616;10.032;2023-02-23T03:38:52;8.10;99.90
10873;DHT22;34586;53.616;10.032;2023-02-23T03:41:41;8.10;99.90
10873;DHT22;34586;53.616;10.032;2023-02-23T03:44:35;8.10;99.90
10873;DHT22;34586;53.616;10.032;2023-02-23T03:47:23;8.30;99.90
10873;DHT22;34586;53.616;10.032;2023-02-23T03:50:14;8.20;99.90
10873;DHT22;34586;53.616;10.032;2023-02-23T03:53:02;8.20;99.90
10873;DHT22;34586;53.616;10.032;2023-02-23T03:55:50;8.20;99.90
10873;DHT22;34586;53.616;10.032;2023-02-23T03:58:58;8.20;99.90
10873;DHT22;34586;53.616;10.032;2023-02-23T04:01:45;8.20;99.90
10873;DHT22;34586;53.616;10.032;2023-02-23T04:04:30;8.10;99.90
10873;DHT22;34586;53.616;10.032;2023-02-23T04:07:18;8.10;99.90
10873;DHT22;34586;53.616;10.032;2023-02-23T04:10:04;8.10;99.90
10873;DHT22;34586;53.616;10.032;2023-02-23T04:13:07;8.10;99.90
10873;DHT22;34586;53.616;10.032;2023-02-23T04:15:54;8.10;99.90
10873;DHT22;34586;53.616;10.032;2023-02-23T04:18:27;8.00;99.90
10873;DHT22;34586;53.616;10.032;2023-02-23T04:20:54;8.00;99.90
10873;DHT22;34586;53.616;10.032;2023-02-23T04:23:20;8.00;99.90
10873;DHT22;34586;53.616;10.032;2023-02-23T04:25:48;8.00;99.90
10873;DHT22;34586;53.616;10.032;2023-02-23T04:28:14;8.00;99.90
10873;DHT22;34586;53.616;10.032;2023-02-23T04:30:40;8.00;99.90
10873;DHT22;34586;53.616;10.032;2023-02-23T04:33:06;8.00;99.90
10873;DHT22;34586;53.616;10.032;2023-02-23T04:35:32;8.00;99.90
10873;DHT22;34586;53.616;10.032;2023-02-23T04:37:58;8.00;99.90
10873;DHT22;34586;53.616;10.032;2023-02-23T04:40:25;8.00;99.90
10873;DHT22;34586;53.616;10.032;2023-02-23T04:42:51;8.00;99.90
10873;DHT22;34586;53.616;10.032;2023-02-23T04:45:16;8.10;99.90
10873;DHT22;34586;53.616;10.032;2023-02-23T04:47:42;8.10;99.90
10873;DHT22;34586;53.616;10.032;2023-02-23T04:50:08;8.10;99.90
10873;DHT22;34586;53.616;10.032;2023-02-23T04:52:34;8.10;99.90
10873;DHT22;34586;53.616;10.032;2023-02-23T04:55:02;8.10;99.90
10873;DHT22;34586;53.616;10.032;2023-02-23T04:57:28;8.10;99.90
10873;DHT22;34586;53.616;10.032;2023-02-23T04:59:53;8.20;99.90
10873;DHT22;34586;53.616;10.032;2023-02-23T05:02:19;8.20;99.90
10873;DHT22;34586;53.616;10.032;2023-02-23T05:04:45;8.20;99.90
10873;DHT22;34586;53.616;10.032;2023-02-23T05:07:10;8.20;99.90
10873;DHT22;34586;53.616;10.032;2023-02-23T05:09:45;8.20;99.90
10873;DHT22;34586;53.616;10.032;2023-02-23T05:12:14;8.20;99.90
10873;DHT22;34586;53.616;10.032;2023-02-23T05:14:39;8.20;99.90
10873;DHT22;34586;53.616;10.032;2023-02-23T05:17:05;8.10;99.90
10873;DHT22;34586;53.616;10.032;2023-02-23T05:19:31;8.30;99.90
10873;DHT22;34586;53.616;10.032;2023-02-23T05:21:57;8.30;99.90
10873;DHT22;34586;53.616;10.032;2023-02-23T05:24:22;8.20;99.90
10873;DHT22;34586;53.616;10.032;2023-02-23T05:26:48;8.30;99.90
10873;DHT22;34586;53.616;10.032;2023-02-23T05:29:14;8.30;99.90
10873;DHT22;34586;53.616;10.032;2023-02-23T05:31:39;8.30;99.90
10873;DHT22;34586;53.616;10.032;2023-02-23T05:34:05;8.30;99.90
10873;DHT22;34586;53.616;10.032;2023-02-23T05:36:31;8.30;99.90
10873;DHT22;34586;53.616;10.032;2023-02-23T05:38:56;8.30;99.90
10873;DHT22;34586;53.616;10.032;2023-02-23T05:41:22;8.30;99.90
10873;DHT22;34586;53.616;10.032;2023-02-23T05:43:49;8.30;99.90
10873;DHT22;34586;53.616;10.032;2023-02-23T05:46:23;8.30;99.90
10873;DHT22;34586;53.616;10.032;2023-02-23T05:48:50;8.40;99.90
10873;DHT22;34586;53.616;10.032;2023-02-23T05:51:16;8.50;99.90
10873;DHT22;34586;53.616;10.032;2023-02-23T05:53:43;8.30;99.90
10873;DHT22;34586;53.616;10.032;2023-02-23T05:56:12;8.30;99.90
10873;DHT22;34586;53.616;10.032;2023-02-23T05:58:37;8.30;99.90
10873;DHT22;34586;53.616;10.032;2023-02-23T06:01:03;8.40;99.90
10873;DHT22;34586;53.616;10.032;2023-02-23T06:03:29;8.40;99.90
10873;DHT22;34586;53.616;10.032;2023-02-23T06:05:56;8.40;99.90
10873;DHT22;34586;53.616;10.032;2023-02-23T06:08:24;8.40;99.90
10873;DHT22;34586;53.616;10.032;2023-02-23T06:10:51;8.40;99.90
10873;DHT22;34586;53.616;10.032;2023-02-23T06:13:17;8.40;99.90
10873;DHT22;34586;53.616;10.032;2023-02-23T06:15:43;8.50;99.90
10873;DHT22;34586;53.616;10.032;2023-02-23T06:18:09;8.40;99.90
10873;DHT22;34586;53.616;10.032;2023-02-23T06:20:35;8.40;99.90
10873;DHT22;34586;53.616;10.032;2023-02-23T06:23:03;8.40;99.90
10873;DHT22;34586;53.616;10.032;2023-02-23T06:25:29;8.50;99.90
10873;DHT22;34586;53.616;10.032;2023-02-23T06:27:55;8.50;99.90
10873;DHT22;34586;53.616;10.032;2023-02-23T06:30:21;8.40;99.90
10873;DHT22;34586;53.616;10.032;2023-02-23T06:32:47;8.40;99.90
10873;DHT22;34586;53.616;10.032;2023-02-23T06:35:12;8.30;99.90
10873;DHT22;34586;53.616;10.032;2023-02-23T06:37:39;8.40;99.90
10873;DHT22;34586;53.616;10.032;2023-02-23T06:40:05;8.50;99.90
10873;DHT22;34586;53.616;10.032;2023-02-23T06:42:31;8.50;99.90
10873;DHT22;34586;53.616;10.032;2023-02-23T06:44:56;8.50;99.90
10873;DHT22;34586;53.616;10.032;2023-02-23T06:47:22;8.50;99.90
10873;DHT22;34586;53.616;10.032;2023-02-23T06:49:48;8.40;99.90
10873;DHT22;34586;53.616;10.032;2023-02-23T06:52:14;8.50;99.90
10873;DHT22;34586;53.616;10.032;2023-02-23T06:54:40;8.40;99.90
10873;DHT22;34586;53.616;10.032;2023-02-23T06:57:07;8.50;99.90
10873;DHT22;34586;53.616;10.032;2023-02-23T06:59:33;8.50;99.90
10873;DHT22;34586;53.616;10.032;2023-02-23T07:01:58;8.50;99.90
10873;DHT22;34586;53.616;10.032;2023-02-23T07:04:24;8.50;99.90
10873;DHT22;34586;53.616;10.032;2023-02-23T07:06:50;8.40;99.90
10873;DHT22;34586;53.616;10.032;2023-02-23T07:09:16;8.40;99.90
10873;DHT22;34586;53.616;10.032;2023-02-23T07:11:42;8.40;99.90
10873;DHT22;34586;53.616;10.032;2023-02-23T07:14:09;8.50;99.90
10873;DHT22;34586;53.616;10.032;2023-02-23T07:16:35;8.50;99.90
10873;DHT22;34586;53.616;10.032;2023-02-23T07:19:01;8.50;99.90
10873;DHT22;34586;53.616;10.032;2023-02-23T07:21:28;8.50;99.90
10873;DHT22;34586;53.616;10.032;2023-02-23T07:23:54;8.40;99.90
10873;DHT22;34586;53.616;10.032;2023-02-23T07:26:19;8.40;99.90
10873;DHT22;34586;53.616;10.032;2023-02-23T07:28:45;8.40;99.90
10873;DHT22;34586;53.616;10.032;2023-02-23T07:31:11;8.40;99.90
10873;DHT22;34586;53.616;10.032;2023-02-23T07:33:36;8.50;99.90
10873;DHT22;34586;53.616;10.032;2023-02-23T07:36:02;8.60;99.90
10873;DHT22;34586;53.616;10.032;2023-02-23T07:38:28;8.50;99.90
10873;DHT22;34586;53.616;10.032;2023-02-23T07:40:53;8.60;99.90
10873;DHT22;34586;53.616;10.032;2023-02-23T07:43:19;8.60;99.90
10873;DHT22;34586;53.616;10.032;2023-02-23T07:45:47;8.60;99.90
10873;DHT22;34586;53.616;10.032;2023-02-23T07:48:13;8.60;99.90
10873;DHT22;34586;53.616;10.032;2023-02-23T07:50:39;8.60;99.90
10873;DHT22;34586;53.616;10.032;2023-02-23T07:53:05;8.60;99.90
10873;DHT22;34586;53.616;10.032;2023-02-23T07:55:31;8.60;99.90
10873;DHT22;34586;53.616;10.032;2023-02-23T07:57:56;8.60;99.90
10873;DHT22;34586;53.616;10.032;2023-02-23T08:00:22;8.50;99.90
10873;DHT22;34586;53.616;10.032;2023-02-23T08:02:50;8.50;99.90
10873;DHT22;34586;53.616;10.032;2023-02-23T08:05:18;8.50;99.90
10873;DHT22;34586;53.616;10.032;2023-02-23T08:07:43;9.20;99.90
10873;DHT22;34586;53.616;10.032;2023-02-23T08:10:10;8.50;99.90
10873;DHT22;34586;53.616;10.032;2023-02-23T08:12:36;8.50;99.90
10873;DHT22;34586;53.616;10.032;2023-02-23T08:15:03;8.50;99.90
10873;DHT22;34586;53.616;10.032;2023-02-23T08:17:30;8.50;99.90
10873;DHT22;34586;53.616;10.032;2023-02-23T08:19:55;8.50;99.90
10873;DHT22;34586;53.616;10.032;2023-02-23T08:22:21;8.50;99.90
10873;DHT22;34586;53.616;10.032;2023-02-23T08:24:47;8.40;99.90
10873;DHT22;34586;53.616;10.032;2023-02-23T08:27:12;8.50;99.90
10873;DHT22;34586;53.616;10.032;2023-02-23T08:29:38;8.50;99.90
10873;DHT22;34586;53.616;10.032;2023-02-23T08:32:04;8.60;99.90
10873;DHT22;34586;53.616;10.032;2023-02-23T08:34:30;8.50;99.90
10873;DHT22;34586;53.616;10.032;2023-02-23T08:36:55;8.50;99.90
10873;DHT22;34586;53.616;10.032;2023-02-23T08:39:21;8.50;99.90
10873;DHT22;34586;53.616;10.032;2023-02-23T08:41:47;8.50;99.90
10873;DHT22;34586;53.616;10.032;2023-02-23T08:44:13;8.60;99.90
10873;DHT22;34586;53.616;10.032;2023-02-23T08:46:38;8.60;99.90
10873;DHT22;34586;53.616;10.032;2023-02-23T08:49:04;8.70;99.90
10873;DHT22;34586;53.616;10.032;2023-02-23T08:51:30;8.60;99.90
10873;DHT22;34586;53.616;10.032;2023-02-23T08:53:56;8.60;99.90
10873;DHT22;34586;53.616;10.032;2023-02-23T08:56:22;8.60;99.90
10873;DHT22;34586;53.616;10.032;2023-02-23T08:58:50;8.60;99.90
10873;DHT22;34586;53.616;10.032;2023-02-23T09:01:18;8.60;99.90
10873;DHT22;34586;53.616;10.032;2023-02-23T09:03:44;8.70;99.90
10873;DHT22;34586;53.616;10.032;2023-02-23T09:06:16;8.70;99.90
10873;DHT22;34586;53.616;10.032;2023-02-23T09:08:42;8.70;99.90
10873;DHT22;34586;53.616;10.032;2023-02-23T09:11:08;8.70;99.90
10873;DHT22;34586;53.616;10.032;2023-02-23T09:13:33;8.70;99.90
10873;DHT22;34586;53.616;10.032;2023-02-23T09:16:00;8.80;99.90
10873;DHT22;34586;53.616;10.032;2023-02-23T09:18:28;8.80;99.90
10873;DHT22;34586;53.616;10.032;2023-02-23T09:20:55;8.80;99.90
10873;DHT22;34586;53.616;10.032;2023-02-23T09:23:21;8.80;99.90
10873;DHT22;34586;53.616;10.032;2023-02-23T09:25:49;8.80;99.90
10873;DHT22;34586;53.616;10.032;2023-02-23T09:28:16;8.80;99.90
10873;DHT22;34586;53.616;10.032;2023-02-23T09:30:44;8.80;99.90
10873;DHT22;34586;53.616;10.032;2023-02-23T09:33:11;8.70;99.90
10873;DHT22;34586;53.616;10.032;2023-02-23T09:35:37;8.70;99.90
10873;DHT22;34586;53.616;10.032;2023-02-23T09:38:05;8.70;99.90
10873;DHT22;34586;53.616;10.032;2023-02-23T09:40:48;8.70;99.90
10873;DHT22;34586;53.616;10.032;2023-02-23T09:46:12;8.60;99.90
10873;DHT22;34586;53.616;10.032;2023-02-23T09:48:40;8.70;99.90
10873;DHT22;34586;53.616;10.032;2023-02-23T09:51:09;8.60;99.90
10873;DHT22;34586;53.616;10.032;2023-02-23T09:53:40;8.50;99.90
10873;DHT22;34586;53.616;10.032;2023-02-23T09:56:57;8.60;99.90
10873;DHT22;34586;53.616;10.032;2023-02-23T09:59:05;8.40;99.90
10873;DHT22;34586;53.616;10.032;2023-02-23T10:01:42;8.20;99.90
10873;DHT22;34586;53.616;10.032;2023-02-23T10:06:43;8.20;99.90
10873;DHT22;34586;53.616;10.032;2023-02-23T10:12:33;8.20;99.90
10873;DHT22;34586;53.616;10.032;2023-02-23T10:17:27;8.30;99.90
10873;DHT22;34586;53.616;10.032;2023-02-23T10:20:11;8.40;99.90
10873;DHT22;34586;53.616;10.032;2023-02-23T10:22:38;8.50;99.90
10873;DHT22;34586;53.616;10.032;2023-02-23T10:25:11;8.50;99.90
10873;DHT22;34586;53.616;10.032;2023-02-23T10:27:42;8.60;99.90
10873;DHT22;34586;53.616;10.032;2023-02-23T10:30:30;8.60;99.90
10873;DHT22;34586;53.616;10.032;2023-02-23T10:35:36;8.50;99.90
10873;DHT22;34586;53.616;10.032;2023-02-23T10:38:03;8.40;99.90
10873;DHT22;34586;53.616;10.032;2023-02-23T10:40:32;8.50;99.90
10873;DHT22;34586;53.616;10.032;2023-02-23T10:42:59;8.40;99.90
10873;DHT22;34586;53.616;10.032;2023-02-23T10:45:28;8.40;99.90
10873;DHT22;34586;53.616;10.032;2023-02-23T10:47:57;8.40;99.90
10873;DHT22;34586;53.616;10.032;2023-02-23T10:50:25;8.40;99.90
10873;DHT22;34586;53.616;10.032;2023-02-23T10:53:00;8.30;99.90
10873;DHT22;34586;53.616;10.032;2023-02-23T10:55:30;8.30;99.90
10873;DHT22;34586;53.616;10.032;2023-02-23T10:58:15;8.50;99.90
10873;DHT22;34586;53.616;10.032;2023-02-23T11:01:08;8.20;99.90
10873;DHT22;34586;53.616;10.032;2023-02-23T11:03:35;8.20;99.90
10873;DHT22;34586;53.616;10.032;2023-02-23T11:06:02;8.20;99.90
10873;DHT22;34586;53.616;10.032;2023-02-23T11:08:34;8.20;99.90
10873;DHT22;34586;53.616;10.032;2023-02-23T11:11:06;8.30;99.90
10873;DHT22;34586;53.616;10.032;2023-02-23T11:16:05;8.70;99.90
10873;DHT22;34586;53.616;10.032;2023-02-23T11:18:31;8.80;99.90
10873;DHT22;34586;53.616;10.032;2023-02-23T11:20:58;9.00;99.90
10873;DHT22;34586;53.616;10.032;2023-02-23T11:23:33;9.10;99.90
10873;DHT22;34586;53.616;10.032;2023-02-23T11:26:02;9.10;99.90
10873;DHT22;34586;53.616;10.032;2023-02-23T11:28:33;9.20;99.90
10873;DHT22;34586;53.616;10.032;2023-02-23T11:31:03;9.20;99.90
10873;DHT22;34586;53.616;10.032;2023-02-23T11:33:31;9.30;99.90
10873;DHT22;34586;53.616;10.032;2023-02-23T11:36:16;9.50;99.90
10873;DHT22;34586;53.616;10.032;2023-02-23T11:38:44;9.40;99.90
10873;DHT22;34586;53.616;10.032;2023-02-23T11:41:20;9.50;99.90
10873;DHT22;34586;53.616;10.032;2023-02-23T11:43:51;9.30;99.90
10873;DHT22;34586;53.616;10.032;2023-02-23T11:46:20;9.20;99.90
10873;DHT22;34586;53.616;10.032;2023-02-23T11:51:38;9.40;99.90
10873;DHT22;34586;53.616;10.032;2023-02-23T11:54:06;9.70;99.90
10873;DHT22;34586;53.616;10.032;2023-02-23T11:56:47;9.70;99.90
10873;DHT22;34586;53.616;10.032;2023-02-23T11:59:17;9.60;99.90
10873;DHT22;34586;53.616;10.032;2023-02-23T12:01:45;9.60;99.90
10873;DHT22;34586;53.616;10.032;2023-02-23T12:04:31;9.80;76.20
10873;DHT22;34586;53.616;10.032;2023-02-23T12:16:32;9.20;99.90
10873;DHT22;34586;53.616;10.032;2023-02-23T12:19:09;9.10;99.90
10873;DHT22;34586;53.616;10.032;2023-02-23T12:21:42;9.10;99.90
10873;DHT22;34586;53.616;10.032;2023-02-23T12:26:57;9.30;87.60
10873;DHT22;34586;53.616;10.032;2023-02-23T12:29:35;9.20;93.10
10873;DHT22;34586;53.616;10.032;2023-02-23T12:32:10;9.10;76.60
10873;DHT22;34586;53.616;10.032;2023-02-23T12:35:03;9.20;99.90
10873;DHT22;34586;53.616;10.032;2023-02-23T12:40:25;9.20;99.90
10873;DHT22;34586;53.616;10.032;2023-02-23T12:45:44;9.30;99.90
10873;DHT22;34586;53.616;10.032;2023-02-23T12:50:52;9.00;99.90
10873;DHT22;34586;53.616;10.032;2023-02-23T12:53:37;9.10;99.90
10873;DHT22;34586;53.616;10.032;2023-02-23T13:01:34;9.00;99.90
10873;DHT22;34586;53.616;10.032;2023-02-23T13:04:17;9.00;99.90
10873;DHT22;34586;53.616;10.032;2023-02-23T13:06:58;8.90;99.90
10873;DHT22;34586;53.616;10.032;2023-02-23T13:12:13;9.00;99.90
10873;DHT22;34586;53.616;10.032;2023-02-23T13:15:06;9.00;99.90
10873;DHT22;34586;53.616;10.032;2023-02-23T13:17:49;9.00;99.90
10873;DHT22;34586;53.616;10.032;2023-02-23T13:20:45;9.00;99.90
10873;DHT22;34586;53.616;10.032;2023-02-23T13:23:20;9.10;99.90
10873;DHT22;34586;53.616;10.032;2023-02-23T13:28:44;9.00;99.90
10873;DHT22;34586;53.616;10.032;2023-02-23T13:31:26;9.00;99.90
10873;DHT22;34586;53.616;10.032;2023-02-23T13:33:55;8.90;99.90
10873;DHT22;34586;53.616;10.032;2023-02-23T13:36:22;8.90;99.90
10873;DHT22;34586;53.616;10.032;2023-02-23T13:41:56;9.10;99.90
10873;DHT22;34586;53.616;10.032;2023-02-23T13:44:45;9.10;99.90
10873;DHT22;34586;53.616;10.032;2023-02-23T13:52:44;9.40;99.90
10873;DHT22;34586;53.616;10.032;2023-02-23T13:58:02;9.50;74.10
10873;DHT22;34586;53.616;10.032;2023-02-23T14:00:29;9.40;99.90
10873;DHT22;34586;53.616;10.032;2023-02-23T14:02:55;9.30;99.90
10873;DHT22;34586;53.616;10.032;2023-02-23T14:05:25;9.40;99.90
10873;DHT22;34586;53.616;10.032;2023-02-23T14:08:03;9.40;99.90
10873;DHT22;34586;53.616;10.032;2023-02-23T14:10:41;9.30;99.90
10873;DHT22;34586;53.616;10.032;2023-02-23T14:16:06;9.20;96.80
10873;DHT22;34586;53.616;10.032;2023-02-23T14:18:32;9.10;99.90
10873;DHT22;34586;53.616;10.032;2023-02-23T14:21:24;9.00;99.90
10873;DHT22;34586;53.616;10.032;2023-02-23T14:23:53;9.00;99.90
10873;DHT22;34586;53.616;10.032;2023-02-23T14:34:51;9.10;99.90
10873;DHT22;34586;53.616;10.032;2023-02-23T14:39:53;9.20;97.20
10873;DHT22;34586;53.616;10.032;2023-02-23T14:42:22;9.20;99.90
10873;DHT22;34586;53.616;10.032;2023-02-23T14:44:49;9.20;99.90
10873;DHT22;34586;53.616;10.032;2023-02-23T14:47:21;9.20;99.90
10873;DHT22;34586;53.616;10.032;2023-02-23T14:49:58;9.30;99.90
10873;DHT22;34586;53.616;10.032;2023-02-23T14:52:32;9.20;99.90
10873;DHT22;34586;53.616;10.032;2023-02-23T14:57:40;9.20;99.90
10873;DHT22;34586;53.616;10.032;2023-02-23T15:03:01;9.30;99.90
10873;DHT22;34586;53.616;10.032;2023-02-23T15:05:33;9.30;99.70
10873;DHT22;34586;53.616;10.032;2023-02-23T15:08:03;9.40;92.20
10873;DHT22;34586;53.616;10.032;2023-02-23T15:10:35;9.40;94.90
10873;DHT22;34586;53.616;10.032;2023-02-23T15:13:09;9.40;94.40
10873;DHT22;34586;53.616;10.032;2023-02-23T15:15:35;9.40;91.20
10873;DHT22;34586;53.616;10.032;2023-02-23T15:18:18;9.30;83.30
10873;DHT22;34586;53.616;10.032;2023-02-23T15:20:47;9.40;94.00
10873;DHT22;34586;53.616;10.032;2023-02-23T15:23:16;9.30;99.90
10873;DHT22;34586;53.616;10.032;2023-02-23T15:25:42;9.10;99.90
10873;DHT22;34586;53.616;10.032;2023-02-23T15:30:52;9.10;99.90
10873;DHT22;34586;53.616;10.032;2023-02-23T15:33:20;9.10;99.90
10873;DHT22;34586;53.616;10.032;2023-02-23T15:38:46;9.00;99.90
10873;DHT22;34586;53.616;10.032;2023-02-23T15:41:30;8.90;99.90
10873;DHT22;34586;53.616;10.032;2023-02-23T15:44:10;8.80;99.90
10873;DHT22;34586;53.616;10.032;2023-02-23T15:46:38;8.70;99.90
10873;DHT22;34586;53.616;10.032;2023-02-23T15:49:11;8.70;99.90
10873;DHT22;34586;53.616;10.032;2023-02-23T15:51:44;8.70;99.90
10873;DHT22;34586;53.616;10.032;2023-02-23T15:54:22;8.70;99.90
10873;DHT22;34586;53.616;10.032;2023-02-23T15:56:53;9.30;99.90
10873;DHT22;34586;53.616;10.032;2023-02-23T15:59:26;8.60;99.90
10873;DHT22;34586;53.616;10.032;2023-02-23T16:01:53;8.60;99.90
10873;DHT22;34586;53.616;10.032;2023-02-23T16:04:22;8.60;99.90
10873;DHT22;34586;53.616;10.032;2023-02-23T16:06:52;8.50;99.90
10873;DHT22;34586;53.616;10.032;2023-02-23T16:11:53;8.40;99.90
10873;DHT22;34586;53.616;10.032;2023-02-23T16:14:21;8.40;99.90
10873;DHT22;34586;53.616;10.032;2023-02-23T16:16:49;8.40;99.90
10873;DHT22;34586;53.616;10.032;2023-02-23T16:19:19;8.40;99.90
10873;DHT22;34586;53.616;10.032;2023-02-23T16:21:54;8.30;99.90
10873;DHT22;34586;53.616;10.032;2023-02-23T16:24:24;8.40;99.90
10873;DHT22;34586;53.616;10.032;2023-02-23T16:26:59;8.30;99.90
10873;DHT22;34586;53.616;10.032;2023-02-23T16:29:36;8.30;99.90
10873;DHT22;34586;53.616;10.032;2023-02-23T16:32:19;8.20;99.90
10873;DHT22;34586;53.616;10.032;2023-02-23T16:34:53;8.20;99.90
10873;DHT22;34586;53.616;10.032;2023-02-23T16:37:21;8.20;99.90
10873;DHT22;34586;53.616;10.032;2023-02-23T16:39:49;8.10;99.90
10873;DHT22;34586;53.616;10.032;2023-02-23T16:42:31;7.90;99.90
10873;DHT22;34586;53.616;10.032;2023-02-23T16:44:58;8.00;99.90
10873;DHT22;34586;53.616;10.032;2023-02-23T16:47:34;8.00;99.90
10873;DHT22;34586;53.616;10.032;2023-02-23T16:50:08;7.90;99.90
10873;DHT22;34586;53.616;10.032;2023-02-23T16:52:37;7.90;99.90
10873;DHT22;34586;53.616;10.032;2023-02-23T16:55:02;7.90;99.90
10873;DHT22;34586;53.616;10.032;2023-02-23T16:57:39;7.80;99.90
10873;DHT22;34586;53.616;10.032;2023-02-23T17:00:06;7.80;99.90
10873;DHT22;34586;53.616;10.032;2023-02-23T17:02:42;7.70;99.90
10873;DHT22;34586;53.616;10.032;2023-02-23T17:05:11;7.60;99.90
10873;DHT22;34586;53.616;10.032;2023-02-23T17:07:40;7.60;95.30
10873;DHT22;34586;53.616;10.032;2023-02-23T17:10:06;7.50;3.70
10873;DHT22;34586;53.616;10.032;2023-02-23T17:12:32;7.40;1.00
10873;DHT22;34586;53.616;10.032;2023-02-23T17:14:58;7.30;99.90
10873;DHT22;34586;53.616;10.032;2023-02-23T17:17:24;7.30;99.90
10873;DHT22;34586;53.616;10.032;2023-02-23T17:19:49;7.30;99.90
10873;DHT22;34586;53.616;10.032;2023-02-23T17:22:15;7.30;1.00
10873;DHT22;34586;53.616;10.032;2023-02-23T17:24:42;7.30;1.00
10873;DHT22;34586;53.616;10.032;2023-02-23T17:27:08;7.30;1.00
10873;DHT22;34586;53.616;10.032;2023-02-23T17:29:34;7.20;1.00
10873;DHT22;34586;53.616;10.032;2023-02-23T17:32:00;7.20;1.00
10873;DHT22;34586;53.616;10.032;2023-02-23T17:34:26;7.20;1.00
10873;DHT22;34586;53.616;10.032;2023-02-23T17:36:52;7.20;1.00
10873;DHT22;34586;53.616;10.032;2023-02-23T17:39:18;7.10;1.00
10873;DHT22;34586;53.616;10.032;2023-02-23T17:41:44;7.00;1.00
10873;DHT22;34586;53.616;10.032;2023-02-23T17:44:09;7.00;1.00
10873;DHT22;34586;53.616;10.032;2023-02-23T17:46:35;7.00;1.00
10873;DHT22;34586;53.616;10.032;2023-02-23T17:49:01;6.90;1.00
10873;DHT22;34586;53.616;10.032;2023-02-23T17:51:27;6.90;1.00
10873;DHT22;34586;53.616;10.032;2023-02-23T17:53:53;6.90;1.00
10873;DHT22;34586;53.616;10.032;2023-02-23T17:56:18;6.90;1.00